sensor_id;sensor_type;location;lat;lon;timestamp;P1;durP1;ratioP1;P2;durP2;ratioP2
61460;SDS011;47325;50.506;4.472;2024-02-04T00:03:42;4.50;;;2.10;;
61460;SDS011;47325;50.506;4.472;2024-02-04T00:09:27;3.70;;;1.90;;
61460;SDS011;47325;50.506;4.472;2024-02-04T00:15:15;3.20;;;1.90;;
61460;SDS011;47325;50.506;4.472;2024-02-04T00:21:00;4.00;;;1.70;;
61460;SDS011;47325;50.506;4.472;2024-02-04T00:26:44;4.00;;;1.90;;
61460;SDS011;47325;50.506;4.472;2024-02-04T00:32:28;3.80;;;1.70;;
61460;SDS011;47325;50.506;4.472;2024-02-04T00:38:14;3.70;;;1.80;;
61460;SDS011;47325;50.506;4.472;2024-02-04T00:43:58;3.40;;;1.80;;
61460;SDS011;47325;50.506;4.472;2024-02-04T00:49:42;3.70;;;2.00;;
61460;SDS011;47325;50.506;4.472;2024-02-04T00:55:29;3.30;;;1.90;;
61460;SDS011;47325;50.506;4.472;2024-02-04T01:01:14;2.90;;;2.00;;
61460;SDS011;47325;50.506;4.472;2024-02-04T01:06:58;5.80;;;2.20;;
61460;SDS011;47325;50.506;4.472;2024-02-04T01:12:45;4.70;;;2.40;;
61460;SDS011;47325;50.506;4.472;2024-02-04T01:18:30;5.30;;;2.40;;
61460;SDS011;47325;50.506;4.472;2024-02-04T01:24:14;3.70;;;2.00;;
61460;SDS011;47325;50.506;4.472;2024-02-04T01:29:59;5.60;;;2.30;;
61460;SDS011;47325;50.506;4.472;2024-02-04T01:35:43;3.40;;;1.90;;
61460;SDS011;47325;50.506;4.472;2024-02-04T01:41:27;6.20;;;2.10;;
61460;SDS011;47325;50.506;4.472;2024-02-04T01:47:13;2.70;;;1.90;;
61460;SDS011;47325;50.506;4.472;2024-02-04T01:52:57;3.00;;;1.80;;
61460;SDS011;47325;50.506;4.472;2024-02-04T01:58:41;3.60;;;1.70;;
61460;SDS011;47325;50.506;4.472;2024-02-04T02:04:26;4.20;;;2.20;;
61460;SDS011;47325;50.506;4.472;2024-02-04T02:10:11;3.40;;;1.70;;
61460;SDS011;47325;50.506;4.472;2024-02-04T02:15:58;3.50;;;1.80;;
61460;SDS011;47325;50.506;4.472;2024-02-04T02:21:50;4.30;;;2.30;;
61460;SDS011;47325;50.506;4.472;2024-02-04T02:27:37;3.60;;;1.80;;
61460;SDS011;47325;50.506;4.472;2024-02-04T02:33:26;2.60;;;1.80;;
61460;SDS011;47325;50.506;4.472;2024-02-04T02:39:12;2.30;;;1.60;;
61460;SDS011;47325;50.506;4.472;2024-02-04T02:44:58;2.80;;;1.70;;
61460;SDS011;47325;50.506;4.472;2024-02-04T02:50:43;3.10;;;2.00;;
61460;SDS011;47325;50.506;4.472;2024-02-04T02:56:27;4.20;;;1.70;;
61460;SDS011;47325;50.506;4.472;2024-02-04T03:02:11;4.60;;;1.70;;
61460;SDS011;47325;50.506;4.472;2024-02-04T03:07:55;3.40;;;1.60;;
61460;SDS011;47325;50.506;4.472;2024-02-04T03:13:41;2.30;;;1.80;;
61460;SDS011;47325;50.506;4.472;2024-02-04T03:19:26;2.40;;;1.70;;
61460;SDS011;47325;50.506;4.472;2024-02-04T03:25:10;5.40;;;2.10;;
61460;SDS011;47325;50.506;4.472;2024-02-04T03:30:55;3.00;;;1.80;;
61460;SDS011;47325;50.506;4.472;2024-02-04T03:36:40;2.90;;;1.80;;
61460;SDS011;47325;50.506;4.472;2024-02-04T03:42:25;3.80;;;1.80;;
61460;SDS011;47325;50.506;4.472;2024-02-04T03:48:10;4.20;;;1.90;;
61460;SDS011;47325;50.506;4.472;2024-02-04T03:53:55;2.40;;;1.60;;
61460;SDS011;47325;50.506;4.472;2024-02-04T03:59:40;2.50;;;1.70;;
61460;SDS011;47325;50.506;4.472;2024-02-04T04:05:24;4.10;;;1.90;;
61460;SDS011;47325;50.506;4.472;2024-02-04T04:11:09;3.90;;;2.00;;
61460;SDS011;47325;50.506;4.472;2024-02-04T04:16:54;3.20;;;1.80;;
61460;SDS011;47325;50.506;4.472;2024-02-04T04:22:38;3.70;;;1.80;;
61460;SDS011;47325;50.506;4.472;2024-02-04T04:28:23;4.00;;;2.50;;
61460;SDS011;47325;50.506;4.472;2024-02-04T04:34:07;5.30;;;2.60;;
61460;SDS011;47325;50.506;4.472;2024-02-04T04:39:52;3.90;;;2.20;;
61460;SDS011;47325;50.506;4.472;2024-02-04T04:45:37;3.30;;;2.00;;
61460;SDS011;47325;50.506;4.472;2024-02-04T04:51:21;3.80;;;2.30;;
61460;SDS011;47325;50.506;4.472;2024-02-04T04:57:06;4.00;;;2.20;;
61460;SDS011;47325;50.506;4.472;2024-02-04T05:02:50;4.50;;;2.10;;
61460;SDS011;47325;50.506;4.472;2024-02-04T05:08:35;2.90;;;1.90;;
61460;SDS011;47325;50.506;4.472;2024-02-04T05:14:19;3.50;;;2.00;;
61460;SDS011;47325;50.506;4.472;2024-02-04T05:20:05;4.00;;;1.90;;
61460;SDS011;47325;50.506;4.472;2024-02-04T05:25:49;3.20;;;1.80;;
61460;SDS011;47325;50.506;4.472;2024-02-04T05:31:39;2.60;;;1.90;;
61460;SDS011;47325;50.506;4.472;2024-02-04T05:37:24;2.30;;;1.50;;
61460;SDS011;47325;50.506;4.472;2024-02-04T05:43:09;2.60;;;1.80;;
61460;SDS011;47325;50.506;4.472;2024-02-04T05:48:56;3.30;;;1.70;;
61460;SDS011;47325;50.506;4.472;2024-02-04T05:54:42;5.90;;;1.80;;
61460;SDS011;47325;50.506;4.472;2024-02-04T06:00:26;4.00;;;1.60;;
61460;SDS011;47325;50.506;4.472;2024-02-04T06:06:13;9.60;;;2.00;;
61460;SDS011;47325;50.506;4.472;2024-02-04T06:11:58;8.30;;;2.00;;
61460;SDS011;47325;50.506;4.472;2024-02-04T06:17:43;11.20;;;2.00;;
61460;SDS011;47325;50.506;4.472;2024-02-04T06:23:28;3.20;;;1.70;;
61460;SDS011;47325;50.506;4.472;2024-02-04T06:29:12;5.40;;;1.50;;
61460;SDS011;47325;50.506;4.472;2024-02-04T06:34:56;3.80;;;1.70;;
61460;SDS011;47325;50.506;4.472;2024-02-04T06:40:41;3.00;;;1.60;;
61460;SDS011;47325;50.506;4.472;2024-02-04T06:46:29;4.80;;;1.70;;
61460;SDS011;47325;50.506;4.472;2024-02-04T06:52:13;2.70;;;1.40;;
61460;SDS011;47325;50.506;4.472;2024-02-04T06:57:58;3.00;;;1.10;;
61460;SDS011;47325;50.506;4.472;2024-02-04T07:03:42;2.40;;;1.50;;
61460;SDS011;47325;50.506;4.472;2024-02-04T07:09:27;2.80;;;1.30;;
61460;SDS011;47325;50.506;4.472;2024-02-04T07:15:11;1.60;;;1.20;;
61460;SDS011;47325;50.506;4.472;2024-02-04T07:20:57;1.80;;;1.10;;
61460;SDS011;47325;50.506;4.472;2024-02-04T07:26:41;1.90;;;1.00;;
61460;SDS011;47325;50.506;4.472;2024-02-04T07:32:26;1.70;;;0.90;;
61460;SDS011;47325;50.506;4.472;2024-02-04T07:38:10;3.00;;;1.10;;
61460;SDS011;47325;50.506;4.472;2024-02-04T07:43:55;2.40;;;1.10;;
61460;SDS011;47325;50.506;4.472;2024-02-04T07:49:39;1.80;;;1.00;;
61460;SDS011;47325;50.506;4.472;2024-02-04T07:55:25;2.40;;;1.20;;
61460;SDS011;47325;50.506;4.472;2024-02-04T08:01:09;1.80;;;1.20;;
61460;SDS011;47325;50.506;4.472;2024-02-04T08:06:54;3.10;;;1.30;;
61460;SDS011;47325;50.506;4.472;2024-02-04T08:12:39;2.30;;;1.40;;
61460;SDS011;47325;50.506;4.472;2024-02-04T08:18:25;1.90;;;1.40;;
61460;SDS011;47325;50.506;4.472;2024-02-04T08:24:11;1.60;;;1.30;;
61460;SDS011;47325;50.506;4.472;2024-02-04T08:29:56;2.90;;;1.60;;
61460;SDS011;47325;50.506;4.472;2024-02-04T08:35:40;2.50;;;1.40;;
61460;SDS011;47325;50.506;4.472;2024-02-04T08:41:24;3.40;;;1.40;;
61460;SDS011;47325;50.506;4.472;2024-02-04T08:47:10;2.50;;;1.40;;
61460;SDS011;47325;50.506;4.472;2024-02-04T08:52:54;2.10;;;1.50;;
61460;SDS011;47325;50.506;4.472;2024-02-04T08:58:39;1.90;;;1.30;;
61460;SDS011;47325;50.506;4.472;2024-02-04T09:04:23;2.20;;;1.20;;
61460;SDS011;47325;50.506;4.472;2024-02-04T09:10:08;1.30;;;1.20;;
61460;SDS011;47325;50.506;4.472;2024-02-04T09:15:53;2.60;;;1.20;;
61460;SDS011;47325;50.506;4.472;2024-02-04T09:21:38;2.10;;;1.30;;
61460;SDS011;47325;50.506;4.472;2024-02-04T09:27:23;2.70;;;1.60;;
61460;SDS011;47325;50.506;4.472;2024-02-04T09:33:08;2.10;;;1.30;;
61460;SDS011;47325;50.506;4.472;2024-02-04T09:38:53;4.40;;;1.30;;
61460;SDS011;47325;50.506;4.472;2024-02-04T09:44:37;2.50;;;1.30;;
61460;SDS011;47325;50.506;4.472;2024-02-04T09:50:22;3.30;;;1.30;;
61460;SDS011;47325;50.506;4.472;2024-02-04T09:56:08;2.60;;;1.30;;
61460;SDS011;47325;50.506;4.472;2024-02-04T10:01:54;2.10;;;1.30;;
61460;SDS011;47325;50.506;4.472;2024-02-04T10:07:40;1.60;;;1.20;;
61460;SDS011;47325;50.506;4.472;2024-02-04T10:13:25;2.30;;;1.30;;
61460;SDS011;47325;50.506;4.472;2024-02-04T10:19:10;2.80;;;1.30;;
61460;SDS011;47325;50.506;4.472;2024-02-04T10:25:04;1.70;;;1.20;;
61460;SDS011;47325;50.506;4.472;2024-02-04T10:30:46;2.70;;;1.40;;
61460;SDS011;47325;50.506;4.472;2024-02-04T10:36:30;1.70;;;1.10;;
61460;SDS011;47325;50.506;4.472;2024-02-04T10:42:15;1.50;;;1.20;;
61460;SDS011;47325;50.506;4.472;2024-02-04T10:48:01;2.00;;;1.10;;
61460;SDS011;47325;50.506;4.472;2024-02-04T10:53:46;1.50;;;1.10;;
61460;SDS011;47325;50.506;4.472;2024-02-04T10:59:30;1.20;;;1.10;;
61460;SDS011;47325;50.506;4.472;2024-02-04T11:05:16;1.90;;;1.10;;
61460;SDS011;47325;50.506;4.472;2024-02-04T11:11:02;2.00;;;1.00;;
61460;SDS011;47325;50.506;4.472;2024-02-04T11:16:53;1.10;;;0.90;;
61460;SDS011;47325;50.506;4.472;2024-02-04T11:22:52;1.70;;;0.80;;
61460;SDS011;47325;50.506;4.472;2024-02-04T11:28:41;1.60;;;0.90;;
61460;SDS011;47325;50.506;4.472;2024-02-04T11:34:27;1.70;;;0.90;;
61460;SDS011;47325;50.506;4.472;2024-02-04T11:40:17;1.30;;;0.80;;
61460;SDS011;47325;50.506;4.472;2024-02-04T11:46:03;1.30;;;0.90;;
61460;SDS011;47325;50.506;4.472;2024-02-04T11:51:52;2.20;;;0.90;;
61460;SDS011;47325;50.506;4.472;2024-02-04T11:57:38;1.30;;;0.90;;
61460;SDS011;47325;50.506;4.472;2024-02-04T12:03:32;1.50;;;0.80;;
61460;SDS011;47325;50.506;4.472;2024-02-04T12:09:20;1.10;;;0.80;;
61460;SDS011;47325;50.506;4.472;2024-02-04T12:15:08;1.40;;;0.80;;
61460;SDS011;47325;50.506;4.472;2024-02-04T12:20:54;1.50;;;0.80;;
61460;SDS011;47325;50.506;4.472;2024-02-04T12:26:40;1.20;;;0.80;;
61460;SDS011;47325;50.506;4.472;2024-02-04T12:32:26;1.60;;;0.90;;
61460;SDS011;47325;50.506;4.472;2024-02-04T12:38:12;1.90;;;0.80;;
61460;SDS011;47325;50.506;4.472;2024-02-04T12:44:12;1.90;;;0.90;;
61460;SDS011;47325;50.506;4.472;2024-02-04T12:50:02;1.40;;;0.90;;
61460;SDS011;47325;50.506;4.472;2024-02-04T12:55:48;1.20;;;0.90;;
61460;SDS011;47325;50.506;4.472;2024-02-04T13:01:33;1.30;;;0.90;;
61460;SDS011;47325;50.506;4.472;2024-02-04T13:07:21;1.30;;;0.90;;
61460;SDS011;47325;50.506;4.472;2024-02-04T13:13:07;0.80;;;0.70;;
61460;SDS011;47325;50.506;4.472;2024-02-04T13:18:56;1.40;;;0.80;;
61460;SDS011;47325;50.506;4.472;2024-02-04T13:24:41;1.20;;;0.70;;
61460;SDS011;47325;50.506;4.472;2024-02-04T13:30:26;0.90;;;0.80;;
61460;SDS011;47325;50.506;4.472;2024-02-04T13:36:16;1.10;;;0.80;;
61460;SDS011;47325;50.506;4.472;2024-02-04T13:42:04;1.10;;;0.70;;
61460;SDS011;47325;50.506;4.472;2024-02-04T13:47:57;1.10;;;0.70;;
61460;SDS011;47325;50.506;4.472;2024-02-04T13:53:43;1.80;;;0.60;;
61460;SDS011;47325;50.506;4.472;2024-02-04T13:59:27;1.30;;;0.70;;
61460;SDS011;47325;50.506;4.472;2024-02-04T14:05:12;1.00;;;0.80;;
61460;SDS011;47325;50.506;4.472;2024-02-04T14:10:57;1.60;;;1.00;;
61460;SDS011;47325;50.506;4.472;2024-02-04T14:16:41;1.80;;;0.60;;
61460;SDS011;47325;50.506;4.472;2024-02-04T14:22:25;2.60;;;0.90;;
61460;SDS011;47325;50.506;4.472;2024-02-04T14:28:10;3.20;;;0.90;;
61460;SDS011;47325;50.506;4.472;2024-02-04T14:33:55;3.10;;;0.80;;
61460;SDS011;47325;50.506;4.472;2024-02-04T14:39:40;3.30;;;1.00;;
61460;SDS011;47325;50.506;4.472;2024-02-04T14:45:24;2.70;;;0.90;;
61460;SDS011;47325;50.506;4.472;2024-02-04T14:51:09;2.10;;;0.90;;
61460;SDS011;47325;50.506;4.472;2024-02-04T14:56:54;3.10;;;1.30;;
61460;SDS011;47325;50.506;4.472;2024-02-04T15:02:39;1.10;;;0.80;;
61460;SDS011;47325;50.506;4.472;2024-02-04T15:08:24;1.50;;;1.00;;
61460;SDS011;47325;50.506;4.472;2024-02-04T15:14:09;3.00;;;1.20;;
61460;SDS011;47325;50.506;4.472;2024-02-04T15:19:54;3.20;;;1.00;;
61460;SDS011;47325;50.506;4.472;2024-02-04T15:25:39;1.40;;;0.80;;
61460;SDS011;47325;50.506;4.472;2024-02-04T15:31:24;1.80;;;1.00;;
61460;SDS011;47325;50.506;4.472;2024-02-04T15:37:09;2.00;;;1.00;;
61460;SDS011;47325;50.506;4.472;2024-02-04T15:42:53;2.30;;;0.90;;
61460;SDS011;47325;50.506;4.472;2024-02-04T15:48:38;3.40;;;1.00;;
61460;SDS011;47325;50.506;4.472;2024-02-04T15:54:24;2.30;;;1.30;;
61460;SDS011;47325;50.506;4.472;2024-02-04T16:00:09;1.50;;;1.00;;
61460;SDS011;47325;50.506;4.472;2024-02-04T16:05:54;2.30;;;0.90;;
61460;SDS011;47325;50.506;4.472;2024-02-04T16:11:42;2.80;;;1.00;;
61460;SDS011;47325;50.506;4.472;2024-02-04T16:17:29;1.90;;;1.00;;
61460;SDS011;47325;50.506;4.472;2024-02-04T16:23:18;1.70;;;0.90;;
61460;SDS011;47325;50.506;4.472;2024-02-04T16:29:02;3.30;;;1.10;;
61460;SDS011;47325;50.506;4.472;2024-02-04T16:34:48;2.40;;;0.90;;
61460;SDS011;47325;50.506;4.472;2024-02-04T16:40:33;2.10;;;1.00;;
61460;SDS011;47325;50.506;4.472;2024-02-04T16:46:18;2.00;;;0.90;;
61460;SDS011;47325;50.506;4.472;2024-02-04T16:52:02;2.00;;;1.10;;
61460;SDS011;47325;50.506;4.472;2024-02-04T16:57:47;2.90;;;1.10;;
61460;SDS011;47325;50.506;4.472;2024-02-04T17:03:32;2.40;;;1.10;;
61460;SDS011;47325;50.506;4.472;2024-02-04T17:09:17;2.40;;;0.90;;
61460;SDS011;47325;50.506;4.472;2024-02-04T17:15:03;3.00;;;1.10;;
61460;SDS011;47325;50.506;4.472;2024-02-04T17:20:47;4.50;;;1.20;;
61460;SDS011;47325;50.506;4.472;2024-02-04T17:26:35;3.00;;;1.10;;
61460;SDS011;47325;50.506;4.472;2024-02-04T17:32:20;3.70;;;1.20;;
61460;SDS011;47325;50.506;4.472;2024-02-04T17:38:05;2.40;;;1.20;;
61460;SDS011;47325;50.506;4.472;2024-02-04T17:43:49;2.70;;;1.10;;
61460;SDS011;47325;50.506;4.472;2024-02-04T17:49:33;1.80;;;1.20;;
61460;SDS011;47325;50.506;4.472;2024-02-04T17:55:19;5.00;;;1.30;;
61460;SDS011;47325;50.506;4.472;2024-02-04T18:01:03;2.00;;;1.10;;
61460;SDS011;47325;50.506;4.472;2024-02-04T18:06:48;2.80;;;1.20;;
61460;SDS011;47325;50.506;4.472;2024-02-04T18:12:33;2.30;;;1.10;;
61460;SDS011;47325;50.506;4.472;2024-02-04T18:18:17;3.20;;;1.10;;
61460;SDS011;47325;50.506;4.472;2024-02-04T18:24:02;3.50;;;1.30;;
61460;SDS011;47325;50.506;4.472;2024-02-04T18:29:46;3.30;;;1.10;;
61460;SDS011;47325;50.506;4.472;2024-02-04T18:35:31;3.70;;;1.30;;
61460;SDS011;47325;50.506;4.472;2024-02-04T18:41:15;2.90;;;1.30;;
61460;SDS011;47325;50.506;4.472;2024-02-04T18:47:00;3.10;;;1.30;;
61460;SDS011;47325;50.506;4.472;2024-02-04T18:52:44;4.80;;;1.30;;
61460;SDS011;47325;50.506;4.472;2024-02-04T18:58:29;6.60;;;1.60;;
61460;SDS011;47325;50.506;4.472;2024-02-04T19:04:13;4.80;;;2.20;;
61460;SDS011;47325;50.506;4.472;2024-02-04T19:09:58;4.10;;;1.80;;
61460;SDS011;47325;50.506;4.472;2024-02-04T19:15:43;5.40;;;1.90;;
61460;SDS011;47325;50.506;4.472;2024-02-04T19:21:29;5.40;;;1.90;;
61460;SDS011;47325;50.506;4.472;2024-02-04T19:27:13;4.40;;;1.90;;
61460;SDS011;47325;50.506;4.472;2024-02-04T19:32:57;8.50;;;2.10;;
61460;SDS011;47325;50.506;4.472;2024-02-04T19:38:42;4.20;;;1.90;;
61460;SDS011;47325;50.506;4.472;2024-02-04T19:44:26;5.60;;;2.10;;
61460;SDS011;47325;50.506;4.472;2024-02-04T19:50:12;4.90;;;2.00;;
61460;SDS011;47325;50.506;4.472;2024-02-04T19:55:58;7.90;;;2.30;;
61460;SDS011;47325;50.506;4.472;2024-02-04T20:01:43;6.10;;;1.80;;
61460;SDS011;47325;50.506;4.472;2024-02-04T20:07:28;4.10;;;1.60;;
61460;SDS011;47325;50.506;4.472;2024-02-04T20:13:13;6.30;;;2.10;;
61460;SDS011;47325;50.506;4.472;2024-02-04T20:18:58;5.50;;;2.00;;
61460;SDS011;47325;50.506;4.472;2024-02-04T20:24:50;4.10;;;1.80;;
61460;SDS011;47325;50.506;4.472;2024-02-04T20:30:34;5.20;;;2.00;;
61460;SDS011;47325;50.506;4.472;2024-02-04T20:36:19;4.90;;;1.90;;
61460;SDS011;47325;50.506;4.472;2024-02-04T20:42:05;5.30;;;1.90;;
61460;SDS011;47325;50.506;4.472;2024-02-04T20:47:49;5.30;;;1.90;;
61460;SDS011;47325;50.506;4.472;2024-02-04T20:53:35;3.30;;;1.70;;
61460;SDS011;47325;50.506;4.472;2024-02-04T20:59:19;5.60;;;1.80;;
61460;SDS011;47325;50.506;4.472;2024-02-04T21:05:04;4.20;;;1.90;;
61460;SDS011;47325;50.506;4.472;2024-02-04T21:10:49;3.70;;;1.60;;
61460;SDS011;47325;50.506;4.472;2024-02-04T21:16:33;4.70;;;1.60;;
61460;SDS011;47325;50.506;4.472;2024-02-04T21:22:18;4.00;;;1.80;;
61460;SDS011;47325;50.506;4.472;2024-02-04T21:28:03;3.40;;;1.60;;
61460;SDS011;47325;50.506;4.472;2024-02-04T21:33:48;4.50;;;1.80;;
61460;SDS011;47325;50.506;4.472;2024-02-04T21:39:33;4.70;;;2.00;;
61460;SDS011;47325;50.506;4.472;2024-02-04T21:45:19;7.60;;;1.80;;
61460;SDS011;47325;50.506;4.472;2024-02-04T21:51:05;6.10;;;2.20;;
61460;SDS011;47325;50.506;4.472;2024-02-04T21:56:50;5.30;;;1.80;;
61460;SDS011;47325;50.506;4.472;2024-02-04T22:02:35;4.30;;;1.90;;
61460;SDS011;47325;50.506;4.472;2024-02-04T22:08:19;5.80;;;1.90;;
61460;SDS011;47325;50.506;4.472;2024-02-04T22:14:04;7.40;;;1.90;;
61460;SDS011;47325;50.506;4.472;2024-02-04T22:19:50;5.10;;;1.70;;
61460;SDS011;47325;50.506;4.472;2024-02-04T22:25:34;7.30;;;2.60;;
61460;SDS011;47325;50.506;4.472;2024-02-04T22:31:19;6.50;;;1.90;;
61460;SDS011;47325;50.506;4.472;2024-02-04T22:37:04;6.90;;;2.10;;
61460;SDS011;47325;50.506;4.472;2024-02-04T22:42:49;6.50;;;2.20;;
61460;SDS011;47325;50.506;4.472;2024-02-04T22:48:34;8.10;;;2.10;;
61460;SDS011;47325;50.506;4.472;2024-02-04T22:54:18;7.10;;;2.40;;
61460;SDS011;47325;50.506;4.472;2024-02-04T23:00:03;6.20;;;2.30;;
61460;SDS011;47325;50.506;4.472;2024-02-04T23:05:48;7.10;;;2.20;;
61460;SDS011;47325;50.506;4.472;2024-02-04T23:11:32;7.90;;;2.40;;
61460;SDS011;47325;50.506;4.472;2024-02-04T23:17:16;8.80;;;2.50;;
61460;SDS011;47325;50.506;4.472;2024-02-04T23:23:01;11.40;;;3.10;;
61460;SDS011;47325;50.506;4.472;2024-02-04T23:28:45;7.90;;;2.20;;
61460;SDS011;47325;50.506;4.472;2024-02-04T23:34:29;9.90;;;3.00;;
61460;SDS011;47325;50.506;4.472;2024-02-04T23:40:15;8.60;;;2.70;;
61460;SDS011;47325;50.506;4.472;2024-02-04T23:46:00;9.30;;;2.60;;
61460;SDS011;47325;50.506;4.472;2024-02-04T23:51:45;7.50;;;2.50;;
61460;SDS011;47325;50.506;4.472;2024-02-04T23:57:29;10.10;;;2.60;;
